createdAt,value
2023-05-10T00:00:51.769Z,0.10
2023-05-10T00:02:53.318Z,0.00
2023-05-10T00:04:54.795Z,0.00
2023-05-10T00:06:56.406Z,0.00
2023-05-10T00:08:58.040Z,0.08
2023-05-10T00:10:59.501Z,0.00
2023-05-10T00:13:01.060Z,0.10
2023-05-10T00:15:02.689Z,0.00
2023-05-10T00:17:04.191Z,0.10
2023-05-10T00:19:05.628Z,0.10
2023-05-10T00:21:07.205Z,0.10
2023-05-10T00:23:08.724Z,0.10
2023-05-10T00:25:11.213Z,0.10
2023-05-10T00:27:12.852Z,0.10
2023-05-10T00:29:14.454Z,0.10
2023-05-10T00:31:15.856Z,0.20
2023-05-10T00:33:17.461Z,0.10
2023-05-10T00:35:18.852Z,0.10
2023-05-10T00:37:20.249Z,0.10
2023-05-10T00:39:21.760Z,0.10
2023-05-10T00:41:23.236Z,0.10
2023-05-10T00:43:24.701Z,0.10
2023-05-10T00:45:26.234Z,0.10
2023-05-10T00:47:28.115Z,0.10
2023-05-10T00:49:29.722Z,0.10
2023-05-10T00:51:32.226Z,0.10
2023-05-10T00:53:35.531Z,0.10
2023-05-10T00:55:37.291Z,0.00
2023-05-10T00:57:39.066Z,0.10
2023-05-10T00:59:40.780Z,0.10
2023-05-10T01:01:42.306Z,0.03
2023-05-10T01:03:43.820Z,0.10
2023-05-10T01:05:45.417Z,0.00
2023-05-10T01:07:46.808Z,0.10
2023-05-10T01:09:48.358Z,0.08
2023-05-10T01:11:50.161Z,0.10
2023-05-10T01:13:56.535Z,0.05
2023-05-10T01:15:58.650Z,0.00
2023-05-10T01:18:00.574Z,0.00
2023-05-10T01:20:02.518Z,0.00
2023-05-10T01:22:26.998Z,0.10
2023-05-10T01:24:37.825Z,0.00
2023-05-10T01:26:57.866Z,0.10
2023-05-10T01:28:59.342Z,0.00
2023-05-10T01:31:00.816Z,0.03
2023-05-10T01:33:07.349Z,0.00
2023-05-10T01:35:18.020Z,0.10
2023-05-10T01:39:21.376Z,0.00
2023-05-10T01:41:30.775Z,0.00
2023-05-10T01:43:38.075Z,0.00
2023-05-10T01:46:02.003Z,0.00
2023-05-10T01:48:12.639Z,0.00
2023-05-10T01:52:20.193Z,0.05
2023-05-10T01:54:23.359Z,0.00
2023-05-10T01:56:27.138Z,0.10
2023-05-10T01:58:30.451Z,0.00
2023-05-10T02:00:32.786Z,0.10
2023-05-10T02:02:36.381Z,0.10
2023-05-10T02:04:38.449Z,0.00
2023-05-10T02:06:40.426Z,0.00
2023-05-10T02:08:42.106Z,0.00
2023-05-10T02:10:43.982Z,0.00
2023-05-10T02:12:46.844Z,0.00
2023-05-10T02:14:48.502Z,0.00
2023-05-10T02:16:51.635Z,0.10
2023-05-10T02:18:53.733Z,0.00
2023-05-10T02:20:56.023Z,0.00
2023-05-10T02:22:58.507Z,0.10
2023-05-10T02:25:01.372Z,0.00
2023-05-10T02:27:04.483Z,0.00
2023-05-10T02:29:06.468Z,0.03
2023-05-10T02:31:08.385Z,0.00
2023-05-10T02:33:10.138Z,0.00
2023-05-10T02:35:11.953Z,0.10
2023-05-10T02:37:15.633Z,0.10
2023-05-10T02:39:19.009Z,0.10
2023-05-10T02:41:22.271Z,0.00
2023-05-10T02:43:24.129Z,0.10
2023-05-10T02:45:29.122Z,0.00
2023-05-10T02:47:30.698Z,0.10
2023-05-10T02:49:32.230Z,0.00
2023-05-10T02:51:35.826Z,0.10
2023-05-10T02:53:39.530Z,0.00
2023-05-10T02:55:41.996Z,0.05
2023-05-10T02:57:47.687Z,0.00
2023-05-10T02:59:49.238Z,0.05
2023-05-10T03:01:50.878Z,0.10
2023-05-10T03:03:52.383Z,0.00
2023-05-10T03:05:56.662Z,0.00
2023-05-10T03:07:58.197Z,0.00
2023-05-10T03:09:59.932Z,0.10
2023-05-10T03:12:27.988Z,0.00
2023-05-10T03:14:32.498Z,0.00
2023-05-10T03:16:44.813Z,0.00
2023-05-10T03:18:55.625Z,0.10
2023-05-10T03:21:00.178Z,0.00
2023-05-10T03:23:05.804Z,0.00
2023-05-10T03:25:07.819Z,0.10
2023-05-10T03:27:09.818Z,0.00
2023-05-10T03:29:12.442Z,0.08
2023-05-10T03:31:13.988Z,0.00
2023-05-10T03:33:15.483Z,0.10
2023-05-10T03:35:17.020Z,0.00
2023-05-10T03:37:18.580Z,0.10
2023-05-10T03:39:20.319Z,0.10
2023-05-10T03:41:22.361Z,0.10
2023-05-10T03:43:23.810Z,0.00
2023-05-10T03:45:25.411Z,0.00
2023-05-10T03:47:27.053Z,0.00
2023-05-10T03:49:28.536Z,0.00
2023-05-10T03:51:31.975Z,0.00
2023-05-10T03:53:33.409Z,0.00
2023-05-10T03:55:37.064Z,0.10
2023-05-10T03:57:38.703Z,0.00
2023-05-10T03:59:40.348Z,0.00
2023-05-10T04:01:41.908Z,0.00
2023-05-10T04:03:43.423Z,0.00
2023-05-10T04:05:44.881Z,0.10
2023-05-10T04:07:46.379Z,0.00
2023-05-10T04:09:47.997Z,0.00
2023-05-10T04:11:49.380Z,0.00
2023-05-10T04:13:50.856Z,0.00
2023-05-10T04:15:52.498Z,0.00
2023-05-10T04:17:54.591Z,0.00
2023-05-10T04:19:56.972Z,0.10
2023-05-10T04:21:59.053Z,0.00
2023-05-10T04:24:00.535Z,0.00
2023-05-10T04:26:02.160Z,0.00
2023-05-10T04:28:03.714Z,0.00
2023-05-10T04:30:05.524Z,0.00
2023-05-10T04:32:07.120Z,0.00
2023-05-10T04:34:08.622Z,0.00
2023-05-10T04:36:10.361Z,0.00
2023-05-10T04:38:11.780Z,0.00
2023-05-10T04:40:13.557Z,0.00
2023-05-10T04:42:15.896Z,0.00
2023-05-10T04:44:17.413Z,0.00
2023-05-10T04:46:18.912Z,0.00
2023-05-10T04:48:20.669Z,0.10
2023-05-10T04:50:22.213Z,0.00
2023-05-10T04:52:23.607Z,0.00
2023-05-10T04:54:26.020Z,0.00
2023-05-10T04:56:27.546Z,0.00
2023-05-10T04:58:28.996Z,0.00
2023-05-10T05:00:30.602Z,0.08
2023-05-10T05:02:32.104Z,0.00
2023-05-10T05:04:33.580Z,0.00
2023-05-10T05:06:35.058Z,0.00
2023-05-10T05:08:36.566Z,0.00
2023-05-10T05:10:38.084Z,0.00
2023-05-10T05:12:39.537Z,0.00
2023-05-10T05:14:41.146Z,0.00
2023-05-10T05:16:42.752Z,0.00
2023-05-10T05:18:44.214Z,0.00
2023-05-10T05:20:45.833Z,0.00
2023-05-10T05:22:47.451Z,0.00
2023-05-10T05:24:49.016Z,0.00
2023-05-10T05:26:50.534Z,0.00
2023-05-10T05:28:54.804Z,0.00
2023-05-10T05:30:56.611Z,0.00
2023-05-10T05:32:58.107Z,0.03
2023-05-10T05:34:59.540Z,0.00
2023-05-10T05:37:01.185Z,0.00
2023-05-10T05:39:02.677Z,0.00
2023-05-10T05:41:04.164Z,0.00
2023-05-10T05:43:05.795Z,0.00
2023-05-10T05:45:07.516Z,0.00
2023-05-10T05:47:09.032Z,0.00
2023-05-10T05:49:10.886Z,0.00
2023-05-10T05:51:12.345Z,0.00
2023-05-10T05:53:13.739Z,0.00
2023-05-10T05:55:15.276Z,0.00
2023-05-10T05:57:17.108Z,0.00
2023-05-10T05:59:18.572Z,0.00
2023-05-10T06:01:20.072Z,0.10
2023-05-10T06:03:21.604Z,0.00
2023-05-10T06:05:23.276Z,0.00
2023-05-10T06:07:24.836Z,0.10
2023-05-10T06:09:26.434Z,0.00
2023-05-10T06:11:27.847Z,0.00
2023-05-10T06:13:33.573Z,0.00
2023-05-10T06:15:35.609Z,0.00
2023-05-10T06:17:37.066Z,0.05
2023-05-10T06:19:38.613Z,0.10
2023-05-10T06:21:40.008Z,0.00
2023-05-10T06:23:41.580Z,0.00
2023-05-10T06:25:43.244Z,0.10
2023-05-10T06:27:48.027Z,0.00
2023-05-10T06:29:56.392Z,0.10
2023-05-10T06:32:00.875Z,0.03
2023-05-10T06:34:02.355Z,0.00
2023-05-10T06:36:03.919Z,0.00
2023-05-10T06:38:05.328Z,0.00
2023-05-10T06:40:07.350Z,0.03
2023-05-10T06:42:08.982Z,0.00
2023-05-10T06:44:10.673Z,0.13
2023-05-10T06:46:12.172Z,0.00
2023-05-10T06:48:13.672Z,0.00
2023-05-10T06:50:15.236Z,0.10
2023-05-10T06:52:16.778Z,0.10
2023-05-10T06:54:18.978Z,0.00
2023-05-10T06:56:22.351Z,0.00
2023-05-10T06:58:24.285Z,0.00
2023-05-10T07:00:26.234Z,0.00
2023-05-10T07:02:28.146Z,0.10
2023-05-10T07:04:29.662Z,0.00
2023-05-10T07:06:34.072Z,0.00
2023-05-10T07:08:35.556Z,0.08
2023-05-10T07:10:37.075Z,0.00
2023-05-10T07:12:39.355Z,0.00
2023-05-10T07:14:40.882Z,0.10
2023-05-10T07:16:42.418Z,0.03
2023-05-10T07:18:43.905Z,0.00
2023-05-10T07:20:45.345Z,0.00
2023-05-10T07:22:46.800Z,0.00
2023-05-10T07:24:48.511Z,0.10
2023-05-10T07:26:49.941Z,0.00
2023-05-10T07:28:51.461Z,0.03
2023-05-10T07:30:53.007Z,0.00
2023-05-10T07:32:54.499Z,0.00
2023-05-10T07:34:56.060Z,0.00
2023-05-10T07:36:59.209Z,0.10
2023-05-10T07:39:00.691Z,0.00
2023-05-10T07:41:02.162Z,0.03
2023-05-10T07:43:03.720Z,0.00
2023-05-10T07:45:05.675Z,0.10
2023-05-10T07:47:07.286Z,0.10
2023-05-10T07:49:08.698Z,0.03
2023-05-10T07:51:10.618Z,0.10
2023-05-10T07:53:12.172Z,0.00
2023-05-10T07:55:14.031Z,0.10
2023-05-10T07:57:18.466Z,0.10
2023-05-10T07:59:20.036Z,0.10
2023-05-10T08:01:21.525Z,0.00
2023-05-10T08:03:22.981Z,0.10
2023-05-10T08:05:24.564Z,0.10
2023-05-10T08:07:26.086Z,0.00
2023-05-10T08:09:27.604Z,0.00
2023-05-10T08:11:29.218Z,0.00
2023-05-10T08:13:30.705Z,0.10
2023-05-10T08:15:32.240Z,0.00
2023-05-10T08:17:33.733Z,0.00
2023-05-10T08:19:35.728Z,0.10
2023-05-10T08:21:37.248Z,0.10
2023-05-10T08:23:38.709Z,0.10
2023-05-10T08:25:40.165Z,0.00
2023-05-10T08:27:41.580Z,0.10
2023-05-10T08:29:50.132Z,0.00
2023-05-10T08:31:52.149Z,0.10
2023-05-10T08:33:53.824Z,0.10
2023-05-10T08:35:55.269Z,0.10
2023-05-10T08:37:56.820Z,0.03
2023-05-10T08:39:58.476Z,0.10
2023-05-10T08:42:01.769Z,0.10
2023-05-10T08:44:04.941Z,0.10
2023-05-10T08:46:07.832Z,0.10
2023-05-10T08:48:10.253Z,0.20
2023-05-10T08:50:12.472Z,0.20
2023-05-10T08:52:14.086Z,0.10
2023-05-10T08:54:15.953Z,0.10
2023-05-10T08:56:18.807Z,0.20
2023-05-10T08:58:20.496Z,0.10
2023-05-10T09:00:23.811Z,0.10
2023-05-10T09:02:25.987Z,0.10
2023-05-10T09:04:27.993Z,0.20
2023-05-10T09:06:29.972Z,0.10
2023-05-10T09:08:32.138Z,0.17
2023-05-10T09:10:33.636Z,0.20
2023-05-10T09:12:35.591Z,0.10
2023-05-10T09:14:37.550Z,0.10
2023-05-10T09:16:39.155Z,0.10
2023-05-10T09:18:43.647Z,0.15
2023-05-10T09:20:45.663Z,0.20
2023-05-10T09:22:47.234Z,0.10
2023-05-10T09:24:48.606Z,0.10
2023-05-10T09:26:50.458Z,0.17
2023-05-10T09:28:53.228Z,0.10
2023-05-10T09:30:56.498Z,0.10
2023-05-10T09:32:59.596Z,0.10
2023-05-10T09:35:06.896Z,0.20
2023-05-10T09:37:09.183Z,0.20
2023-05-10T09:39:10.895Z,0.10
2023-05-10T09:41:24.920Z,0.10
2023-05-10T09:43:26.415Z,0.25
2023-05-10T09:45:28.961Z,0.20
2023-05-10T09:47:32.561Z,0.20
2023-05-10T09:49:34.368Z,0.20
2023-05-10T09:51:36.952Z,0.10
2023-05-10T09:53:38.500Z,0.10
2023-05-10T09:55:40.960Z,0.20
2023-05-10T09:57:42.462Z,0.30
2023-05-10T09:59:44.267Z,0.10
2023-05-10T10:01:54.850Z,0.20
2023-05-10T10:06:00.332Z,0.20
2023-05-10T10:08:03.704Z,0.20
2023-05-10T10:10:05.788Z,0.08
2023-05-10T10:12:07.357Z,0.10
2023-05-10T10:14:08.897Z,0.30
2023-05-10T10:16:10.961Z,0.10
2023-05-10T10:18:13.945Z,0.20
2023-05-10T10:20:16.162Z,0.10
2023-05-10T10:22:17.910Z,0.30
2023-05-10T10:24:19.445Z,0.20
2023-05-10T10:26:22.051Z,0.20
2023-05-10T10:28:28.408Z,0.20
2023-05-10T10:30:29.881Z,0.20
2023-05-10T10:32:38.846Z,0.25
2023-05-10T10:34:40.911Z,0.10
2023-05-10T10:36:48.751Z,0.20
2023-05-10T10:38:53.912Z,0.25
2023-05-10T10:41:10.352Z,0.22
2023-05-10T10:43:24.967Z,0.20
2023-05-10T10:45:27.299Z,0.20
2023-05-10T10:47:31.929Z,0.30
2023-05-10T10:49:34.681Z,0.20
2023-05-10T10:51:39.277Z,0.30
2023-05-10T10:53:41.247Z,0.30
2023-05-10T10:55:49.140Z,0.20
2023-05-10T10:58:01.383Z,0.30
2023-05-10T11:00:22.810Z,0.20
2023-05-10T11:02:35.123Z,0.15
2023-05-10T11:04:44.207Z,0.10
2023-05-10T11:06:45.801Z,0.30
2023-05-10T11:08:48.740Z,0.20
2023-05-10T11:10:53.335Z,0.20
2023-05-10T11:13:02.195Z,0.20
2023-05-10T11:15:03.823Z,0.20
2023-05-10T11:17:24.583Z,0.20
2023-05-10T11:21:27.811Z,0.20
2023-05-10T11:23:32.912Z,0.20
2023-05-10T11:25:34.412Z,0.15
2023-05-10T11:27:38.186Z,0.30
2023-05-10T11:29:39.767Z,0.20
2023-05-10T11:31:47.968Z,0.20
2023-05-10T11:33:50.946Z,0.30
2023-05-10T11:35:52.490Z,0.20
2023-05-10T11:37:54.254Z,0.30
2023-05-10T11:39:55.728Z,0.17
2023-05-10T11:41:57.754Z,0.20
2023-05-10T11:43:59.618Z,0.10
2023-05-10T11:46:01.211Z,0.20
2023-05-10T11:48:03.532Z,0.20
2023-05-10T11:50:05.835Z,0.17
2023-05-10T11:52:08.165Z,0.20
2023-05-10T11:54:11.057Z,0.17
2023-05-10T11:56:12.649Z,0.20
2023-05-10T11:58:14.101Z,0.25
2023-05-10T12:00:16.073Z,0.20
2023-05-10T12:02:17.727Z,0.30
2023-05-10T12:04:19.463Z,0.20
2023-05-10T12:06:21.454Z,0.40
2023-05-10T12:08:24.218Z,0.20
2023-05-10T12:10:27.342Z,0.30
2023-05-10T12:12:35.814Z,0.20
2023-05-10T12:14:37.594Z,0.20
2023-05-10T12:16:39.149Z,0.30
2023-05-10T12:18:41.218Z,0.30
2023-05-10T12:20:42.759Z,0.20
2023-05-10T12:22:47.963Z,0.22
2023-05-10T12:24:50.948Z,0.20
2023-05-10T12:26:57.296Z,0.30
2023-05-10T12:29:21.225Z,0.25
2023-05-10T12:31:23.080Z,0.30
2023-05-10T12:33:24.614Z,0.30
2023-05-10T12:35:26.113Z,0.30
2023-05-10T12:37:29.134Z,0.30
2023-05-10T12:39:43.980Z,0.30
2023-05-10T12:41:45.432Z,0.20
2023-05-10T12:43:47.341Z,0.30
2023-05-10T12:45:49.773Z,0.20
2023-05-10T12:47:51.268Z,0.20
2023-05-10T12:49:52.706Z,0.30
2023-05-10T12:51:54.135Z,0.30
2023-05-10T12:53:56.422Z,0.20
2023-05-10T12:55:58.198Z,0.30
2023-05-10T12:57:59.653Z,0.38
2023-05-10T13:00:01.488Z,0.25
2023-05-10T13:02:02.972Z,0.20
2023-05-10T13:04:04.616Z,0.30
2023-05-10T13:06:07.262Z,0.20
2023-05-10T13:08:08.690Z,0.15
2023-05-10T13:10:10.605Z,0.20
2023-05-10T13:12:12.269Z,0.28
2023-05-10T13:14:14.296Z,0.30
2023-05-10T13:16:16.083Z,0.28
2023-05-10T13:18:17.635Z,0.20
2023-05-10T13:20:19.327Z,0.20
2023-05-10T13:22:32.430Z,0.20
2023-05-10T13:24:41.047Z,0.30
2023-05-10T13:26:42.440Z,0.10
2023-05-10T13:28:44.282Z,0.20
2023-05-10T13:30:45.791Z,0.10
2023-05-10T13:32:47.475Z,0.20
2023-05-10T13:34:48.962Z,0.10
2023-05-10T13:36:50.416Z,0.10
2023-05-10T13:38:51.854Z,0.20
2023-05-10T13:40:53.852Z,0.20
2023-05-10T13:42:55.445Z,0.10
2023-05-10T13:44:56.878Z,0.10
2023-05-10T13:46:58.485Z,0.20
2023-05-10T13:48:59.998Z,0.22
2023-05-10T13:51:01.520Z,0.20
2023-05-10T13:53:03.028Z,0.20
2023-05-10T13:55:04.850Z,0.20
2023-05-10T13:57:06.420Z,0.28
2023-05-10T13:59:08.718Z,0.22
2023-05-10T14:01:10.224Z,0.20
2023-05-10T14:03:12.077Z,0.20
2023-05-10T14:05:14.064Z,0.20
2023-05-10T14:07:15.651Z,0.20
2023-05-10T14:09:17.688Z,0.25
2023-05-10T14:11:19.109Z,0.20
2023-05-10T14:13:20.506Z,0.20
2023-05-10T14:15:22.107Z,0.25
2023-05-10T14:17:23.605Z,0.20
2023-05-10T14:19:25.323Z,0.10
2023-05-10T14:21:26.995Z,0.10
2023-05-10T14:23:29.645Z,0.10
2023-05-10T14:25:31.630Z,0.30
2023-05-10T14:27:33.382Z,0.20
2023-05-10T14:29:34.823Z,0.10
2023-05-10T14:31:36.317Z,0.10
2023-05-10T14:33:37.722Z,0.10
2023-05-10T14:35:39.156Z,0.10
2023-05-10T14:37:40.533Z,0.25
2023-05-10T14:39:43.358Z,0.20
2023-05-10T14:41:45.522Z,0.10
2023-05-10T14:43:47.106Z,0.20
2023-05-10T14:45:48.568Z,0.20
2023-05-10T14:47:51.048Z,0.10
2023-05-10T14:49:52.552Z,0.10
2023-05-10T14:51:54.145Z,0.10
2023-05-10T14:53:55.528Z,0.10
2023-05-10T14:55:56.981Z,0.17
2023-05-10T14:57:59.280Z,0.20
2023-05-10T15:00:01.320Z,0.20
2023-05-10T15:02:04.158Z,0.10
2023-05-10T15:04:06.148Z,0.10
2023-05-10T15:06:08.744Z,0.20
2023-05-10T15:08:10.465Z,0.10
2023-05-10T15:10:12.372Z,0.13
2023-05-10T15:12:13.840Z,0.08
2023-05-10T15:14:15.326Z,0.20
2023-05-10T15:16:16.880Z,0.20
2023-05-10T15:18:18.643Z,0.10
2023-05-10T15:20:20.272Z,0.10
2023-05-10T15:22:22.322Z,0.20
2023-05-10T15:24:23.776Z,0.00
2023-05-10T15:26:27.147Z,0.10
2023-05-10T15:28:28.534Z,0.10
2023-05-10T15:30:30.059Z,0.08
2023-05-10T15:32:31.568Z,0.20
2023-05-10T15:34:34.997Z,0.10
2023-05-10T15:36:37.808Z,0.10
2023-05-10T15:38:39.210Z,0.10
2023-05-10T15:40:40.863Z,0.22
2023-05-10T15:42:42.297Z,0.00
2023-05-10T15:44:45.601Z,0.20
2023-05-10T15:46:47.559Z,0.10
2023-05-10T15:48:49.011Z,0.10
2023-05-10T15:50:53.682Z,0.10
2023-05-10T15:52:55.201Z,0.10
2023-05-10T15:54:57.141Z,0.20
2023-05-10T15:57:00.124Z,0.20
2023-05-10T15:59:01.823Z,0.13
2023-05-10T16:01:04.020Z,0.10
2023-05-10T16:03:05.709Z,0.10
2023-05-10T16:05:07.578Z,0.10
2023-05-10T16:07:09.064Z,0.10
2023-05-10T16:09:10.697Z,0.00
2023-05-10T16:11:12.226Z,0.10
2023-05-10T16:13:15.143Z,0.10
2023-05-10T16:15:17.099Z,0.10
2023-05-10T16:17:20.336Z,0.10
2023-05-10T16:19:22.367Z,0.10
2023-05-10T16:21:23.884Z,0.10
2023-05-10T16:23:25.381Z,0.10
2023-05-10T16:25:26.980Z,0.10
2023-05-10T16:27:30.387Z,0.05
2023-05-10T16:29:32.135Z,0.10
2023-05-10T16:31:33.837Z,0.10
2023-05-10T16:33:35.757Z,0.10
2023-05-10T16:35:37.154Z,0.10
2023-05-10T16:37:38.692Z,0.00
2023-05-10T16:39:40.121Z,0.10
2023-05-10T16:41:41.542Z,0.10
2023-05-10T16:43:43.043Z,0.10
2023-05-10T16:45:44.512Z,0.20
2023-05-10T16:47:46.234Z,0.20
2023-05-10T16:49:47.631Z,0.10
2023-05-10T16:51:49.051Z,0.10
2023-05-10T16:53:50.560Z,0.10
2023-05-10T16:55:52.273Z,0.10
2023-05-10T16:57:59.643Z,0.17
2023-05-10T17:00:01.153Z,0.10
2023-05-10T17:02:02.885Z,0.10
2023-05-10T17:04:04.508Z,0.03
2023-05-10T17:06:06.243Z,0.10
2023-05-10T17:08:07.714Z,0.10
2023-05-10T17:10:09.372Z,0.10
2023-05-10T17:12:10.992Z,0.00
2023-05-10T17:14:12.523Z,0.10
2023-05-10T17:16:14.116Z,0.10
2023-05-10T17:18:16.539Z,0.00
2023-05-10T17:20:18.038Z,0.10
2023-05-10T17:22:19.649Z,0.03
2023-05-10T17:24:21.214Z,0.10
2023-05-10T17:26:22.783Z,0.10
2023-05-10T17:28:24.203Z,0.10
2023-05-10T17:30:28.105Z,0.08
2023-05-10T17:32:29.628Z,0.10
2023-05-10T17:34:31.311Z,0.05
2023-05-10T17:36:33.326Z,0.10
2023-05-10T17:38:36.040Z,0.10
2023-05-10T17:40:40.038Z,0.03
2023-05-10T17:42:41.898Z,0.10
2023-05-10T17:44:43.946Z,0.20
2023-05-10T17:46:45.411Z,0.10
2023-05-10T17:48:47.321Z,0.20
2023-05-10T17:50:51.420Z,0.20
2023-05-10T17:52:52.981Z,0.20
2023-05-10T17:54:54.627Z,0.10
2023-05-10T17:56:58.066Z,0.13
2023-05-10T17:58:59.572Z,0.20
2023-05-10T18:01:01.205Z,0.15
2023-05-10T18:03:03.124Z,0.10
2023-05-10T18:05:05.350Z,0.20
2023-05-10T18:07:07.890Z,0.20
2023-05-10T18:09:09.749Z,0.20
2023-05-10T18:11:11.194Z,0.20
2023-05-10T18:13:12.640Z,0.20
2023-05-10T18:15:14.236Z,0.10
2023-05-10T18:17:15.925Z,0.20
2023-05-10T18:19:17.488Z,0.10
2023-05-10T18:21:19.131Z,0.20
2023-05-10T18:23:21.114Z,0.10
2023-05-10T18:25:22.620Z,0.13
2023-05-10T18:27:24.502Z,0.20
2023-05-10T18:29:26.196Z,0.10
2023-05-10T18:31:27.739Z,0.10
2023-05-10T18:33:29.330Z,0.10
2023-05-10T18:35:31.036Z,0.10
2023-05-10T18:37:33.251Z,0.10
2023-05-10T18:39:34.716Z,0.10
2023-05-10T18:41:36.356Z,0.10
2023-05-10T18:43:37.915Z,0.10
2023-05-10T18:45:39.584Z,0.10
2023-05-10T18:47:41.338Z,0.10
2023-05-10T18:49:43.802Z,0.10
2023-05-10T18:51:45.265Z,0.10
2023-05-10T18:53:46.732Z,0.10
2023-05-10T18:55:54.924Z,0.10
2023-05-10T18:57:56.381Z,0.10
2023-05-10T18:59:57.970Z,0.10
2023-05-10T19:01:59.493Z,0.10
2023-05-10T19:04:01.023Z,0.10
2023-05-10T19:06:02.494Z,0.10
2023-05-10T19:08:03.952Z,0.20
2023-05-10T19:10:05.659Z,0.10
2023-05-10T19:12:07.167Z,0.20
2023-05-10T19:14:08.758Z,0.15
2023-05-10T19:16:12.790Z,0.10
2023-05-10T19:18:16.429Z,0.10
2023-05-10T19:20:18.060Z,0.10
2023-05-10T19:22:28.366Z,0.10
2023-05-10T19:24:37.970Z,0.10
2023-05-10T19:26:39.474Z,0.10
2023-05-10T19:28:41.011Z,0.20
2023-05-10T19:30:42.510Z,0.00
2023-05-10T19:32:44.382Z,0.10
2023-05-10T19:34:46.034Z,0.17
2023-05-10T19:36:47.419Z,0.17
2023-05-10T19:38:48.997Z,0.10
2023-05-10T19:40:51.201Z,0.10
2023-05-10T19:42:54.447Z,0.00
2023-05-10T19:44:55.894Z,0.10
2023-05-10T19:46:57.472Z,0.10
2023-05-10T19:48:59.097Z,0.00
2023-05-10T19:51:04.537Z,0.03
2023-05-10T19:53:06.712Z,0.13
2023-05-10T19:55:09.067Z,0.10
2023-05-10T19:57:12.022Z,0.10
2023-05-10T19:59:14.183Z,0.10
2023-05-10T20:01:16.182Z,0.10
2023-05-10T20:03:17.768Z,0.10
2023-05-10T20:05:19.483Z,0.10
2023-05-10T20:07:21.085Z,0.10
2023-05-10T20:09:22.494Z,0.10
2023-05-10T20:11:23.860Z,0.03
2023-05-10T20:13:25.514Z,0.10
2023-05-10T20:15:28.944Z,0.10
2023-05-10T20:17:30.412Z,0.10
2023-05-10T20:19:31.866Z,0.10
2023-05-10T20:21:33.491Z,0.10
2023-05-10T20:23:34.992Z,0.10
2023-05-10T20:25:36.523Z,0.10
2023-05-10T20:27:37.920Z,0.10
2023-05-10T20:29:39.332Z,0.10
2023-05-10T20:31:40.801Z,0.10
2023-05-10T20:33:42.271Z,0.10
2023-05-10T20:35:44.205Z,0.00
2023-05-10T20:37:45.705Z,0.10
2023-05-10T20:39:49.791Z,0.10
2023-05-10T20:41:52.391Z,0.00
2023-05-10T20:43:53.774Z,0.10
2023-05-10T20:45:55.560Z,0.00
2023-05-10T20:47:58.184Z,0.10
2023-05-10T20:49:59.669Z,0.10
2023-05-10T20:52:01.152Z,0.10
2023-05-10T20:54:04.341Z,0.10
2023-05-10T20:56:06.113Z,0.10
2023-05-10T20:58:07.858Z,0.10
2023-05-10T21:00:09.642Z,0.10
2023-05-10T21:02:11.214Z,0.00
2023-05-10T21:04:12.661Z,0.10
2023-05-10T21:06:14.179Z,0.10
2023-05-10T21:08:15.643Z,0.10
2023-05-10T21:10:17.350Z,0.10
2023-05-10T21:12:19.022Z,0.10
2023-05-10T21:14:20.491Z,0.10
2023-05-10T21:16:22.006Z,0.10
2023-05-10T21:18:23.710Z,0.10
2023-05-10T21:20:25.350Z,0.10
2023-05-10T21:22:26.863Z,0.00
2023-05-10T21:24:28.270Z,0.10
2023-05-10T21:26:29.694Z,0.00
2023-05-10T21:28:31.194Z,0.10
2023-05-10T21:30:33.003Z,0.10
2023-05-10T21:32:34.558Z,0.15
2023-05-10T21:34:36.031Z,0.10
2023-05-10T21:36:37.809Z,0.20
2023-05-10T21:38:39.499Z,0.10
2023-05-10T21:40:41.409Z,0.10
2023-05-10T21:42:42.913Z,0.10
2023-05-10T21:44:44.362Z,0.10
2023-05-10T21:46:46.076Z,0.03
2023-05-10T21:48:47.898Z,0.10
2023-05-10T21:50:49.309Z,0.10
2023-05-10T21:52:51.066Z,0.10
2023-05-10T21:54:52.487Z,0.10
2023-05-10T21:56:53.882Z,0.10
2023-05-10T21:58:55.378Z,0.10
2023-05-10T22:00:57.152Z,0.10
2023-05-10T22:02:58.741Z,0.10
2023-05-10T22:05:01.330Z,0.10
2023-05-10T22:07:03.223Z,0.03
2023-05-10T22:09:05.023Z,0.10
2023-05-10T22:11:06.618Z,0.10
2023-05-10T22:13:08.043Z,0.10
2023-05-10T22:15:10.972Z,0.10
2023-05-10T22:17:12.763Z,0.10
2023-05-10T22:19:14.215Z,0.10
2023-05-10T22:21:15.754Z,0.10
2023-05-10T22:23:17.187Z,0.08
2023-05-10T22:25:18.595Z,0.03
2023-05-10T22:27:20.117Z,0.13
2023-05-10T22:29:22.496Z,0.10
2023-05-10T22:31:23.982Z,0.00
2023-05-10T22:33:25.526Z,0.10
2023-05-10T22:35:27.029Z,0.05
2023-05-10T22:37:28.760Z,0.10
2023-05-10T22:39:30.259Z,0.10
2023-05-10T22:41:32.772Z,0.20
2023-05-10T22:43:34.337Z,0.10
2023-05-10T22:45:35.873Z,0.10
2023-05-10T22:47:37.304Z,0.15
2023-05-10T22:49:38.837Z,0.10
2023-05-10T22:51:40.265Z,0.10
2023-05-10T22:53:41.692Z,0.08
2023-05-10T22:55:43.234Z,0.10
2023-05-10T22:57:44.741Z,0.10
2023-05-10T22:59:46.211Z,0.10
2023-05-10T23:01:48.883Z,0.10
2023-05-10T23:03:50.440Z,0.20
2023-05-10T23:05:51.848Z,0.00
2023-05-10T23:07:54.335Z,0.10
2023-05-10T23:09:55.808Z,0.10
2023-05-10T23:11:57.439Z,0.08
2023-05-10T23:13:58.850Z,0.10
2023-05-10T23:16:04.870Z,0.10
2023-05-10T23:18:06.681Z,0.10
2023-05-10T23:20:08.866Z,0.10
2023-05-10T23:22:10.373Z,0.10
2023-05-10T23:24:12.230Z,0.20
2023-05-10T23:26:13.735Z,0.08
2023-05-10T23:28:15.283Z,0.10
2023-05-10T23:30:16.958Z,0.10
2023-05-10T23:32:18.816Z,0.10
2023-05-10T23:34:20.336Z,0.10
2023-05-10T23:36:21.823Z,0.10
2023-05-10T23:38:23.280Z,0.00
2023-05-10T23:40:24.858Z,0.10
2023-05-10T23:42:26.331Z,0.13
2023-05-10T23:44:27.923Z,0.10
2023-05-10T23:46:29.485Z,0.13
2023-05-10T23:48:34.294Z,0.20
2023-05-10T23:50:37.149Z,0.20
2023-05-10T23:52:38.780Z,0.10
2023-05-10T23:54:40.196Z,0.10
2023-05-10T23:56:41.830Z,0.10
2023-05-10T23:58:44.066Z,0.10
